Osby, Sweden

3:41 PM CEST on July 28, 2015 (GMT +0200)
Vankiva | | Change Station
CLOSE
Current Station
Personal Weather Station
Location: Skåne Län, SKåNE LäN
Elevation: 236 ft
Nearby Weather Stations

Elev 236 ft 56.20 °N, 13.74 °E | Updated 41 minutes ago

Mostly Cloudy
Mostly Cloudy
70.3 °F
Feels Like 72 °F
N
2.0
Wind Variable Wind from ESE
Gusts 2.1 mph

Today
High -- | Low -- °F
--% Chance of Precip.
Yesterday
High -- | Low -- °F
Precip. -- in
4:57 AM 9:22 PM
Waxing Gibbous, 89% visible
Pressure 29.42 in
Visibility 6.2 miles
Clouds Mostly Cloudy 1800 ft
Heat Index 72 °F
Dew Point 63 °F
Humidity 77%
Rainfall 0.00 in
Snow Depth Not available.
UV 4 out of 12
Pollen Not available.
Air Quality Not available.
Flu Activity Not available.
METAR ESMK 281320Z 20008KT 9999 BKN018 18/16 Q0996

More Conditions Fewer Conditions

Pressure 29.42 in
Visibility 6.2 miles
Clouds Mostly Cloudy 1800 ft
Heat Index 72 °F
Dew Point 63 °F
Humidity 77%
Rainfall 0.00 in
Snow Depth Not available.
UV 4 out of 12
Pollen Not available.
Air Quality Not available.
Flu Activity Not available.
METAR ESMK 281320Z 20008KT 9999 BKN018 18/16 Q0996

More Conditions Fewer Conditions

10-Day Weather Forecast

×

Almanac

Astronomy

Jul. 28, 2015 Rise Set
Actual Time
Civil Twilight
Nautical Twilight
Astronomical Twilight
Moon
Length of Visible Light
Length of Day
Tomorrow will be .
, % of the Moon is Illuminated

Today's Extremes

Country Highs Country Lows

Community

WunderPhotos

Upload Photos

1,841,832 photos uploaded!

WunderBlogs® & News

Nearby

Air Quality

  Air Quality AQ Index Pollutant
Not available.

Snow Depth

Station Depth Elevation

Earthquake Activity

City Distance Mag. Time & Date
Minimum magnitude displayed is 2.5.

Coastal Water Temperatures

Place Temperature

Stations

Nearby Weather Stations

Station Location Temp. Windchill Dew Point Humidity Wind Precip. Elev Updated Type